createdAt,value
2019-04-26T00:05:00.254Z,16.50
2019-04-26T00:07:29.532Z,16.60
2019-04-26T00:10:00.447Z,16.50
2019-04-26T00:12:31.314Z,16.40
2019-04-26T00:15:08.431Z,16.40
2019-04-26T00:17:39.678Z,16.50
2019-04-26T00:20:11.454Z,16.40
2019-04-26T00:22:40.634Z,16.30
2019-04-26T00:25:11.099Z,16.10
2019-04-26T00:27:40.873Z,16.10
2019-04-26T00:30:12.101Z,16.00
2019-04-26T00:32:41.858Z,15.90
2019-04-26T00:35:11.618Z,15.90
2019-04-26T00:37:41.990Z,15.80
2019-04-26T00:40:11.861Z,15.70
2019-04-26T00:42:44.927Z,15.80
2019-04-26T00:45:15.016Z,15.80
2019-04-26T00:47:45.129Z,15.70
2019-04-26T00:50:15.358Z,15.60
2019-04-26T00:52:45.714Z,15.60
2019-04-26T00:55:15.839Z,15.70
2019-04-26T00:57:45.932Z,15.80
2019-04-26T01:00:18.149Z,15.70
2019-04-26T01:02:49.211Z,15.50
2019-04-26T01:05:18.917Z,15.40
2019-04-26T01:07:49.995Z,15.10
2019-04-26T01:10:19.652Z,15.00
2019-04-26T01:12:49.151Z,15.00
2019-04-26T01:15:19.992Z,15.00
2019-04-26T01:17:49.581Z,15.10
2019-04-26T01:20:22.479Z,15.20
2019-04-26T01:22:54.886Z,15.30
2019-04-26T01:26:01.859Z,15.30
2019-04-26T01:28:37.019Z,15.30
2019-04-26T01:31:08.228Z,15.20
2019-04-26T01:33:39.518Z,15.00
2019-04-26T01:36:29.287Z,14.80
2019-04-26T01:39:06.313Z,14.80
2019-04-26T01:41:38.955Z,14.80
2019-04-26T01:44:13.346Z,14.80
2019-04-26T01:46:45.372Z,14.90
2019-04-26T01:49:16.928Z,15.00
2019-04-26T01:51:58.247Z,15.20
2019-04-26T01:54:33.419Z,15.30
2019-04-26T01:57:04.947Z,15.30
2019-04-26T01:59:37.454Z,15.30
2019-04-26T02:02:27.687Z,15.30
2019-04-26T02:05:08.288Z,15.30
2019-04-26T02:07:41.119Z,15.10
2019-04-26T02:10:13.157Z,15.10
2019-04-26T02:12:45.893Z,15.20
2019-04-26T02:15:16.259Z,15.20
2019-04-26T02:17:48.231Z,15.10
2019-04-26T02:20:37.111Z,15.10
2019-04-26T02:23:08.022Z,15.10
2019-04-26T02:25:37.370Z,15.10
2019-04-26T02:28:06.673Z,15.20
2019-04-26T02:30:36.808Z,15.30
2019-04-26T02:33:06.374Z,15.40
2019-04-26T02:35:36.075Z,15.40
2019-04-26T02:38:05.310Z,15.40
2019-04-26T02:40:35.030Z,15.40
2019-04-26T02:43:04.916Z,15.40
2019-04-26T02:45:59.387Z,15.40
2019-04-26T02:48:34.788Z,15.50
2019-04-26T02:51:16.154Z,15.50
2019-04-26T02:53:51.272Z,15.40
2019-04-26T02:56:40.847Z,15.40
2019-04-26T02:59:13.154Z,15.50
2019-04-26T03:01:42.539Z,15.50
2019-04-26T03:04:12.105Z,15.40
2019-04-26T03:07:01.851Z,15.50
2019-04-26T03:09:16.559Z,15.50
2019-04-26T03:12:02.468Z,15.50
2019-04-26T03:14:41.865Z,15.50
2019-04-26T03:17:22.999Z,15.40
2019-04-26T03:19:59.430Z,15.40
2019-04-26T03:23:07.763Z,15.50
2019-04-26T03:25:49.192Z,15.50
2019-04-26T03:28:43.722Z,15.30
2019-04-26T03:31:22.165Z,15.30
2019-04-26T03:34:09.609Z,15.10
2019-04-26T03:37:20.198Z,15.10
2019-04-26T03:40:16.791Z,15.00
2019-04-26T03:42:54.778Z,14.80
2019-04-26T03:45:43.133Z,14.80
2019-04-26T03:48:41.060Z,14.90
2019-04-26T03:51:33.812Z,14.90
2019-04-26T03:54:19.685Z,14.80
2019-04-26T03:56:53.717Z,14.60
2019-04-26T03:59:38.281Z,14.60
2019-04-26T04:02:28.561Z,14.50
2019-04-26T04:05:20.087Z,14.40
2019-04-26T04:07:52.530Z,14.50
2019-04-26T04:10:30.721Z,14.50
2019-04-26T04:13:09.000Z,14.50
2019-04-26T04:15:48.514Z,14.40
2019-04-26T04:18:22.896Z,14.50
2019-04-26T04:21:18.053Z,14.60
2019-04-26T04:23:53.324Z,14.70
2019-04-26T04:26:31.480Z,14.50
2019-04-26T04:31:59.265Z,14.40
2019-04-26T04:34:45.294Z,14.30
2019-04-26T04:37:19.715Z,13.90
2019-04-26T04:40:05.160Z,13.60
2019-04-26T04:42:57.469Z,13.70
2019-04-26T04:49:20.522Z,13.60
2019-04-26T04:52:29.804Z,13.60
2019-04-26T04:55:07.398Z,13.60
2019-04-26T04:57:38.937Z,13.70
2019-04-26T05:00:36.321Z,13.50
2019-04-26T05:03:31.296Z,13.50
2019-04-26T05:06:11.080Z,13.60
2019-04-26T05:08:48.858Z,13.60
2019-04-26T05:11:23.091Z,13.60
2019-04-26T05:14:12.259Z,13.10
2019-04-26T05:17:17.895Z,13.00
2019-04-26T05:20:13.162Z,12.80
2019-04-26T05:23:20.007Z,12.50
2019-04-26T05:25:56.742Z,12.60
2019-04-26T05:28:39.846Z,12.40
2019-04-26T05:31:41.131Z,12.40
2019-04-26T05:34:32.879Z,12.40
2019-04-26T05:37:21.799Z,12.40
2019-04-26T05:40:14.687Z,12.50
2019-04-26T05:43:12.877Z,12.40
2019-04-26T05:46:13.474Z,12.40
2019-04-26T05:49:06.899Z,12.60
2019-04-26T05:51:55.734Z,12.40
2019-04-26T05:55:00.158Z,12.40
2019-04-26T05:57:55.011Z,12.50
2019-04-26T06:00:28.969Z,12.50
2019-04-26T06:03:11.823Z,12.60
2019-04-26T06:06:06.951Z,12.60
2019-04-26T06:08:41.019Z,12.50
2019-04-26T06:11:17.552Z,12.30
2019-04-26T06:13:57.825Z,12.10
2019-04-26T06:16:50.504Z,12.10
2019-04-26T06:19:43.189Z,12.00
2019-04-26T06:22:18.189Z,12.00
2019-04-26T06:25:00.885Z,12.10
2019-04-26T06:27:43.408Z,12.10
2019-04-26T06:30:27.259Z,12.20
2019-04-26T06:33:04.021Z,12.20
2019-04-26T06:35:32.148Z,12.20
2019-04-26T06:38:06.138Z,12.40
2019-04-26T06:40:58.217Z,12.40
2019-04-26T06:43:33.664Z,12.50
2019-04-26T06:46:31.109Z,12.60
2019-04-26T06:49:19.732Z,12.70
2019-04-26T06:51:52.056Z,12.70
2019-04-26T06:54:33.408Z,12.70
2019-04-26T06:57:16.145Z,12.70
2019-04-26T07:03:24.513Z,12.70
2019-04-26T07:06:02.567Z,12.60
2019-04-26T07:08:40.668Z,12.50
2019-04-26T07:11:31.119Z,12.50
2019-04-26T07:14:15.632Z,12.50
2019-04-26T07:16:47.988Z,12.40
2019-04-26T07:19:49.770Z,12.50
2019-04-26T07:22:34.721Z,12.60
2019-04-26T07:25:34.775Z,12.80
2019-04-26T07:28:14.711Z,13.00
2019-04-26T07:30:56.199Z,13.00
2019-04-26T07:34:03.514Z,13.00
2019-04-26T07:37:11.402Z,13.00
2019-04-26T07:40:12.627Z,13.10
2019-04-26T07:43:24.096Z,13.10
2019-04-26T07:46:08.420Z,12.90
2019-04-26T07:49:00.349Z,12.90
2019-04-26T07:51:59.912Z,12.90
2019-04-26T07:54:52.978Z,13.10
2019-04-26T07:57:46.011Z,13.20
2019-04-26T08:00:44.406Z,13.20
2019-04-26T08:03:26.185Z,13.30
2019-04-26T08:06:05.689Z,13.50
2019-04-26T08:08:46.958Z,13.60
2019-04-26T08:11:21.920Z,13.60
2019-04-26T08:13:54.241Z,13.50
2019-04-26T08:19:25.625Z,13.20
2019-04-26T08:22:11.559Z,13.00
2019-04-26T08:24:30.376Z,12.90
2019-04-26T08:27:19.652Z,12.90
2019-04-26T08:29:45.424Z,12.80
2019-04-26T08:32:21.917Z,12.80
2019-04-26T08:35:08.257Z,12.70
2019-04-26T08:37:40.414Z,12.70
2019-04-26T08:40:16.308Z,12.60
2019-04-26T08:42:44.491Z,12.70
2019-04-26T08:45:19.566Z,12.80
2019-04-26T08:47:59.942Z,12.90
2019-04-26T08:50:34.030Z,13.00
2019-04-26T08:53:04.427Z,13.10
2019-04-26T08:55:35.985Z,13.30
2019-04-26T08:58:14.166Z,13.40
2019-04-26T09:00:47.877Z,13.60
2019-04-26T09:03:24.509Z,14.00
2019-04-26T09:05:57.410Z,14.00
2019-04-26T09:08:29.811Z,14.20
2019-04-26T09:11:01.477Z,14.20
2019-04-26T09:13:33.812Z,14.30
2019-04-26T09:16:08.850Z,14.30
2019-04-26T09:18:43.461Z,14.20
2019-04-26T09:21:09.540Z,14.20
2019-04-26T09:23:56.761Z,14.10
2019-04-26T09:26:30.848Z,13.80
2019-04-26T09:29:26.376Z,13.70
2019-04-26T09:31:59.407Z,13.60
2019-04-26T09:34:41.361Z,13.80
2019-04-26T09:37:11.146Z,14.10
2019-04-26T09:39:41.632Z,14.20
2019-04-26T09:42:32.280Z,14.40
2019-04-26T09:45:18.419Z,14.40
2019-04-26T09:47:55.095Z,14.20
2019-04-26T09:50:26.078Z,13.90
2019-04-26T09:52:58.339Z,13.70
2019-04-26T09:55:35.264Z,13.80
2019-04-26T09:57:58.844Z,13.90
2019-04-26T10:00:30.090Z,14.10
2019-04-26T10:02:59.794Z,14.50
2019-04-26T10:05:31.534Z,14.60
2019-04-26T10:08:00.808Z,14.70
2019-04-26T10:10:30.911Z,14.80
2019-04-26T10:13:05.931Z,15.00
2019-04-26T10:15:39.069Z,15.00
2019-04-26T10:18:08.263Z,15.00
2019-04-26T10:20:37.791Z,15.00
2019-04-26T10:23:07.227Z,14.90
2019-04-26T10:25:36.586Z,14.90
2019-04-26T10:28:06.002Z,14.90
2019-04-26T10:30:38.322Z,14.70
2019-04-26T10:33:09.429Z,14.60
2019-04-26T10:35:39.899Z,14.40
2019-04-26T10:38:09.180Z,14.40
2019-04-26T10:40:38.495Z,14.60
2019-04-26T10:43:10.104Z,14.60
2019-04-26T10:45:58.745Z,14.70
2019-04-26T10:48:27.990Z,14.70
2019-04-26T10:50:57.289Z,14.50
2019-04-26T10:53:30.141Z,14.60
2019-04-26T10:56:24.237Z,14.60
2019-04-26T10:58:59.772Z,14.50
2019-04-26T11:01:29.155Z,14.60
2019-04-26T11:03:58.416Z,14.70
2019-04-26T11:06:28.887Z,14.70
2019-04-26T11:08:58.483Z,14.60
2019-04-26T11:11:27.874Z,14.60
2019-04-26T11:13:57.614Z,14.70
2019-04-26T11:16:27.159Z,14.70
2019-04-26T11:18:57.226Z,14.90
2019-04-26T11:21:27.383Z,15.10
2019-04-26T11:23:56.733Z,15.40
2019-04-26T11:26:45.310Z,15.70
2019-04-26T11:29:14.633Z,15.90
2019-04-26T11:31:43.937Z,15.90
2019-04-26T11:34:13.202Z,15.90
2019-04-26T11:36:43.080Z,15.90
2019-04-26T11:39:14.587Z,16.70
2019-04-26T11:41:43.856Z,17.10
2019-04-26T11:44:13.239Z,16.80
2019-04-26T11:46:44.980Z,16.90
2019-04-26T11:49:13.508Z,16.90
2019-04-26T11:51:42.751Z,16.80
2019-04-26T11:54:12.034Z,16.50
2019-04-26T11:56:41.314Z,16.70
2019-04-26T11:59:10.600Z,16.50
2019-04-26T12:01:40.436Z,16.20
2019-04-26T12:06:58.024Z,16.60
2019-04-26T12:09:28.937Z,16.60
2019-04-26T12:12:04.681Z,16.20
2019-04-26T12:14:32.984Z,15.80
2019-04-26T12:17:01.274Z,15.70
2019-04-26T12:19:30.872Z,15.70
2019-04-26T12:22:00.112Z,15.60
2019-04-26T12:24:32.453Z,15.50
2019-04-26T12:27:00.322Z,15.60
2019-04-26T12:29:29.735Z,15.60
2019-04-26T12:31:59.082Z,15.30
2019-04-26T12:34:28.343Z,15.30
2019-04-26T12:36:57.642Z,15.50
2019-04-26T12:39:27.091Z,15.60
2019-04-26T12:41:56.471Z,15.70
2019-04-26T12:44:27.358Z,15.80
2019-04-26T12:46:59.401Z,15.90
2019-04-26T12:49:29.267Z,15.80
2019-04-26T12:51:58.595Z,15.80
2019-04-26T12:54:27.985Z,15.80
2019-04-26T12:56:57.255Z,15.70
2019-04-26T12:59:28.109Z,15.80
2019-04-26T13:02:05.584Z,16.00
2019-04-26T13:04:35.834Z,16.40
2019-04-26T13:07:02.342Z,16.70
2019-04-26T13:09:33.997Z,17.00
2019-04-26T13:12:07.919Z,17.30
2019-04-26T13:14:50.758Z,17.20
2019-04-26T13:17:21.652Z,17.30
2019-04-26T13:19:53.972Z,17.20
2019-04-26T13:22:22.051Z,17.50
2019-04-26T13:24:51.387Z,17.60
2019-04-26T13:27:20.902Z,17.60
2019-04-26T13:30:01.516Z,17.70
2019-04-26T13:32:21.084Z,17.90
2019-04-26T13:34:50.486Z,17.50
2019-04-26T13:37:19.731Z,17.50
2019-04-26T13:39:51.259Z,17.80
2019-04-26T13:42:20.022Z,17.90
2019-04-26T13:45:07.460Z,17.80
2019-04-26T13:47:54.889Z,17.80
2019-04-26T13:50:26.683Z,17.90
2019-04-26T13:52:56.743Z,17.90
2019-04-26T13:55:29.499Z,17.70
2019-04-26T13:57:57.054Z,17.70
2019-04-26T14:00:27.774Z,17.90
2019-04-26T14:02:57.084Z,17.70
2019-04-26T14:05:26.325Z,17.70
2019-04-26T14:07:55.610Z,17.50
2019-04-26T14:10:25.287Z,17.40
2019-04-26T14:12:54.577Z,17.40
2019-04-26T14:15:24.254Z,17.60
2019-04-26T14:17:53.571Z,17.80
2019-04-26T14:20:24.341Z,17.60
2019-04-26T14:23:16.469Z,17.50
2019-04-26T14:25:50.300Z,17.50
2019-04-26T14:28:20.378Z,17.50
2019-04-26T14:30:50.486Z,17.60
2019-04-26T14:33:19.716Z,17.20
2019-04-26T14:35:50.625Z,17.00
2019-04-26T14:38:27.757Z,17.10
2019-04-26T14:41:03.303Z,17.30
2019-04-26T14:43:23.377Z,17.30
2019-04-26T14:45:55.986Z,17.40
2019-04-26T14:48:35.350Z,17.30
2019-04-26T14:51:07.197Z,17.20
2019-04-26T14:53:25.703Z,17.10
2019-04-26T14:55:55.681Z,17.20
2019-04-26T14:58:29.874Z,17.30
2019-04-26T15:00:58.561Z,17.30
2019-04-26T15:04:15.302Z,17.00
2019-04-26T15:06:46.227Z,17.00
2019-04-26T15:09:19.829Z,17.00
2019-04-26T15:11:55.368Z,17.10
2019-04-26T15:14:20.554Z,17.20
2019-04-26T15:16:48.402Z,17.10
2019-04-26T15:19:17.727Z,17.10
2019-04-26T15:21:47.263Z,17.20
2019-04-26T15:24:16.527Z,17.20
2019-04-26T15:26:45.766Z,17.20
2019-04-26T15:29:15.266Z,17.30
2019-04-26T15:31:44.543Z,17.50
2019-04-26T15:34:13.804Z,17.60
2019-04-26T15:36:43.351Z,17.60
2019-04-26T15:39:19.925Z,17.60
2019-04-26T15:41:51.236Z,17.60
2019-04-26T15:44:29.590Z,17.50
2019-04-26T15:47:05.539Z,17.60
2019-04-26T15:49:36.947Z,17.80
2019-04-26T15:52:06.591Z,18.00
2019-04-26T15:54:35.944Z,18.10
2019-04-26T15:57:06.658Z,18.00
2019-04-26T15:59:36.219Z,18.00
2019-04-26T16:02:05.673Z,17.90
2019-04-26T16:04:34.938Z,17.90
2019-04-26T16:07:04.286Z,17.80
2019-04-26T16:09:33.516Z,17.80
2019-04-26T16:12:03.577Z,17.90
2019-04-26T16:14:36.592Z,18.00
2019-04-26T16:17:06.556Z,18.00
2019-04-26T16:19:35.301Z,18.00
2019-04-26T16:22:05.037Z,18.00
2019-04-26T16:24:34.633Z,18.10
2019-04-26T16:27:04.506Z,17.80
2019-04-26T16:29:42.440Z,17.80
2019-04-26T16:32:16.748Z,17.80
2019-04-26T16:34:48.851Z,17.70
2019-04-26T16:37:21.713Z,17.50
2019-04-26T16:39:49.365Z,17.60
2019-04-26T16:42:18.784Z,17.60
2019-04-26T16:44:48.203Z,17.40
2019-04-26T16:47:17.556Z,17.40
2019-04-26T16:49:46.911Z,17.20
2019-04-26T16:52:19.070Z,17.30
2019-04-26T16:54:48.486Z,17.50
2019-04-26T16:57:17.862Z,17.60
2019-04-26T16:59:54.051Z,17.70
2019-04-26T17:02:25.665Z,17.90
2019-04-26T17:04:49.066Z,18.00
2019-04-26T17:07:22.410Z,18.10
2019-04-26T17:09:58.150Z,18.10
2019-04-26T17:12:20.314Z,18.00
2019-04-26T17:14:49.595Z,18.00
2019-04-26T17:17:19.007Z,18.00
2019-04-26T17:19:48.384Z,18.00
2019-04-26T17:22:19.342Z,18.00
2019-04-26T17:24:53.464Z,18.00
2019-04-26T17:27:24.906Z,18.00
2019-04-26T17:29:54.240Z,17.90
2019-04-26T17:32:23.508Z,17.90
2019-04-26T17:34:54.597Z,17.90
2019-04-26T17:37:26.318Z,17.90
2019-04-26T17:39:55.530Z,17.90
2019-04-26T17:42:29.263Z,17.80
2019-04-26T17:44:57.640Z,17.80
2019-04-26T17:47:28.319Z,17.80
2019-04-26T17:50:04.484Z,17.70
2019-04-26T17:52:29.751Z,17.60
2019-04-26T17:55:00.280Z,17.60
2019-04-26T17:57:34.699Z,17.70
2019-04-26T18:00:07.827Z,17.60
2019-04-26T18:02:42.019Z,17.50
2019-04-26T18:05:03.707Z,17.50
2019-04-26T18:07:40.665Z,17.50
2019-04-26T18:10:06.998Z,17.40
2019-04-26T18:12:40.648Z,17.30
2019-04-26T18:15:11.527Z,17.20
2019-04-26T18:17:44.177Z,17.20
2019-04-26T18:20:33.244Z,17.20
2019-04-26T18:23:15.357Z,17.10
2019-04-26T18:25:45.127Z,16.90
2019-04-26T18:28:15.927Z,16.80
2019-04-26T18:30:47.598Z,16.70
2019-04-26T18:33:21.713Z,16.70
2019-04-26T18:35:57.432Z,16.60
2019-04-26T18:38:25.798Z,16.60
2019-04-26T18:41:00.438Z,16.50
2019-04-26T18:43:27.568Z,16.40
2019-04-26T18:46:03.323Z,16.30
2019-04-26T18:48:40.255Z,16.40
2019-04-26T18:51:07.457Z,16.40
2019-04-26T18:53:39.696Z,16.40
2019-04-26T18:56:10.164Z,16.40
2019-04-26T18:58:39.404Z,16.40
2019-04-26T19:01:13.544Z,16.30
2019-04-26T19:03:43.713Z,16.20
2019-04-26T19:06:27.128Z,16.00
2019-04-26T19:08:50.018Z,15.80
2019-04-26T19:11:15.157Z,15.80
2019-04-26T19:13:46.083Z,15.80
2019-04-26T19:16:22.914Z,15.80
2019-04-26T19:19:08.612Z,15.90
2019-04-26T19:21:40.603Z,15.90
2019-04-26T19:24:17.629Z,15.80
2019-04-26T19:26:44.154Z,15.70
2019-04-26T19:29:18.116Z,15.50
2019-04-26T19:31:43.146Z,15.40
2019-04-26T19:34:12.552Z,15.30
2019-04-26T19:36:42.143Z,15.10
2019-04-26T19:39:12.041Z,14.90
2019-04-26T19:41:42.024Z,14.80
2019-04-26T19:44:14.711Z,14.50
2019-04-26T19:46:44.367Z,14.40
2019-04-26T19:49:15.466Z,14.40
2019-04-26T19:52:02.197Z,14.40
2019-04-26T19:54:38.278Z,14.40
2019-04-26T19:57:12.796Z,14.40
2019-04-26T19:59:42.280Z,14.50
2019-04-26T20:02:12.792Z,14.60
2019-04-26T20:04:42.364Z,14.70
2019-04-26T20:07:11.616Z,14.60
2019-04-26T20:09:41.987Z,14.50
2019-04-26T20:12:12.233Z,14.40
2019-04-26T20:14:49.096Z,14.30
2019-04-26T20:17:19.614Z,14.20
2019-04-26T20:19:47.684Z,14.20
2019-04-26T20:22:14.687Z,14.10
2019-04-26T20:24:43.959Z,14.10
2019-04-26T20:27:14.064Z,14.20
2019-04-26T20:29:47.853Z,14.20
2019-04-26T20:32:38.605Z,14.30
2019-04-26T20:35:13.079Z,14.40
2019-04-26T20:37:45.221Z,14.40
2019-04-26T20:40:20.294Z,14.40
2019-04-26T20:42:46.318Z,14.30
2019-04-26T20:45:16.947Z,14.20
2019-04-26T20:47:51.089Z,14.00
2019-04-26T20:50:17.772Z,13.90
2019-04-26T20:52:47.106Z,13.90
2019-04-26T20:55:16.369Z,13.80
2019-04-26T20:57:45.695Z,13.80
2019-04-26T21:00:15.403Z,13.80
2019-04-26T21:02:44.777Z,13.80
2019-04-26T21:05:14.801Z,13.80
2019-04-26T21:07:49.471Z,13.70
2019-04-26T21:10:22.062Z,13.70
2019-04-26T21:12:47.494Z,13.60
2019-04-26T21:15:20.120Z,13.60
2019-04-26T21:17:49.657Z,13.60
2019-04-26T21:20:18.982Z,13.60
2019-04-26T21:22:48.573Z,13.60
2019-04-26T21:25:22.615Z,13.50
2019-04-26T21:28:06.805Z,13.40
2019-04-26T21:30:38.435Z,13.40
2019-04-26T21:33:23.980Z,13.30
2019-04-26T21:36:01.825Z,13.40
2019-04-26T21:38:30.639Z,13.40
2019-04-26T21:41:19.822Z,13.30
2019-04-26T21:43:49.087Z,13.30
2019-04-26T21:46:19.295Z,13.30
2019-04-26T21:48:49.659Z,13.30
2019-04-26T21:51:18.957Z,13.40
2019-04-26T21:53:48.328Z,13.30
2019-04-26T21:56:17.567Z,13.40
2019-04-26T21:58:46.833Z,13.30
2019-04-26T22:01:19.670Z,13.20
2019-04-26T22:03:54.210Z,13.10
2019-04-26T22:06:38.275Z,13.10
2019-04-26T22:09:28.620Z,13.10
2019-04-26T22:11:58.138Z,13.20
2019-04-26T22:14:34.848Z,13.20
2019-04-26T22:17:08.572Z,13.30
2019-04-26T22:19:55.761Z,13.30
2019-04-26T22:22:26.783Z,13.30
2019-04-26T22:24:57.859Z,13.30
2019-04-26T22:27:27.214Z,13.20
2019-04-26T22:29:56.580Z,13.10
2019-04-26T22:32:25.899Z,13.10
2019-04-26T22:34:55.431Z,13.10
2019-04-26T22:37:30.040Z,13.10
2019-04-26T22:39:55.690Z,13.10
2019-04-26T22:42:26.946Z,13.20
2019-04-26T22:44:57.831Z,13.10
2019-04-26T22:47:33.988Z,13.20
2019-04-26T22:50:02.688Z,13.20
2019-04-26T22:52:33.439Z,13.20
2019-04-26T22:55:04.111Z,13.20
2019-04-26T22:57:33.485Z,13.30
2019-04-26T23:00:04.208Z,13.30
2019-04-26T23:02:33.496Z,13.30
2019-04-26T23:05:05.784Z,13.40
2019-04-26T23:07:34.737Z,13.50
2019-04-26T23:10:06.773Z,13.40
2019-04-26T23:12:58.042Z,13.50
2019-04-26T23:15:39.435Z,13.40
2019-04-26T23:18:10.382Z,13.20
2019-04-26T23:20:44.142Z,13.20
2019-04-26T23:23:13.521Z,13.30
2019-04-26T23:25:43.497Z,13.10
2019-04-26T23:28:12.856Z,13.10
2019-04-26T23:30:42.542Z,13.10
2019-04-26T23:33:15.095Z,13.10
2019-04-26T23:35:47.515Z,13.10
2019-04-26T23:38:15.491Z,13.00
2019-04-26T23:40:44.949Z,12.90
2019-04-26T23:43:14.290Z,12.90
2019-04-26T23:45:48.332Z,12.80
2019-04-26T23:48:14.506Z,12.70
2019-04-26T23:50:43.731Z,12.70
2019-04-26T23:53:13.887Z,12.80
2019-04-26T23:55:45.239Z,12.70
2019-04-26T23:58:14.273Z,12.60
